Islamorada, Florida
Current Conditions -  °F | °C
As of 3:53 AM on Sunday 26 Oct 2014 (Local Time) from KMTH Reporting Station
Clear Clear  
Wind Chill: 23°   Ceiling: Unl
Heat Index: 23°   Visibility: 10mi
Dew Point: 19°   Wind: 10mph
Humidity: 81%   Direction: 20°NNE
Pressure: 29.9"   Gusts: NA
Location:  24.93°N, 80.63°W
Report Text: KMTH 260753Z AUTO 02009KT 10SM CLR 23/19 A2990 RMK AO2 SLP125 T02280194 $
Loading
Personal Weather Stations






























Interactive Weather Map
Tropical Storm Tracking
New forecast layout! Learn more

10-Day Weather Forecast

Advertisements
Track Severe Weather on mobile